sensor_id;sensor_type;location;lat;lon;timestamp;temperature;humidity
18624;DHT22;9441;51.420;7.036;2022-08-01T00:00:21;21.80;99.90
18624;DHT22;9441;51.420;7.036;2022-08-01T00:01:23;21.80;99.90
18624;DHT22;9441;51.420;7.036;2022-08-01T00:02:25;21.90;99.90
18624;DHT22;9441;51.420;7.036;2022-08-01T00:03:27;21.90;99.90
18624;DHT22;9441;51.420;7.036;2022-08-01T00:04:29;21.80;99.90
18624;DHT22;9441;51.420;7.036;2022-08-01T00:05:31;21.80;99.90
18624;DHT22;9441;51.420;7.036;2022-08-01T00:06:33;21.80;99.90
18624;DHT22;9441;51.420;7.036;2022-08-01T00:07:34;21.80;99.90
18624;DHT22;9441;51.420;7.036;2022-08-01T00:08:36;21.80;99.90
18624;DHT22;9441;51.420;7.036;2022-08-01T00:09:37;21.80;99.90
18624;DHT22;9441;51.420;7.036;2022-08-01T00:10:39;21.80;99.90
18624;DHT22;9441;51.420;7.036;2022-08-01T00:11:40;21.80;99.90
18624;DHT22;9441;51.420;7.036;2022-08-01T00:12:44;21.80;99.90
18624;DHT22;9441;51.420;7.036;2022-08-01T00:13:45;21.80;99.90
18624;DHT22;9441;51.420;7.036;2022-08-01T00:14:49;21.80;99.90
18624;DHT22;9441;51.420;7.036;2022-08-01T00:15:50;21.80;99.90
18624;DHT22;9441;51.420;7.036;2022-08-01T00:16:52;21.80;99.90
18624;DHT22;9441;51.420;7.036;2022-08-01T00:17:53;21.80;99.90
18624;DHT22;9441;51.420;7.036;2022-08-01T00:18:55;21.90;99.90
18624;DHT22;9441;51.420;7.036;2022-08-01T00:19:56;21.80;99.90
18624;DHT22;9441;51.420;7.036;2022-08-01T00:20:59;21.80;99.90
18624;DHT22;9441;51.420;7.036;2022-08-01T00:22:00;21.90;99.90
18624;DHT22;9441;51.420;7.036;2022-08-01T00:23:02;21.80;99.90
18624;DHT22;9441;51.420;7.036;2022-08-01T00:24:04;21.90;99.90
18624;DHT22;9441;51.420;7.036;2022-08-01T00:25:07;21.80;99.90
18624;DHT22;9441;51.420;7.036;2022-08-01T00:26:08;21.90;99.90
18624;DHT22;9441;51.420;7.036;2022-08-01T00:27:10;21.90;99.90
18624;DHT22;9441;51.420;7.036;2022-08-01T00:28:11;21.80;99.90
18624;DHT22;9441;51.420;7.036;2022-08-01T00:29:14;21.80;99.90
18624;DHT22;9441;51.420;7.036;2022-08-01T00:30:17;21.90;99.90
18624;DHT22;9441;51.420;7.036;2022-08-01T00:31:18;21.80;99.90
18624;DHT22;9441;51.420;7.036;2022-08-01T00:32:21;21.90;99.90
18624;DHT22;9441;51.420;7.036;2022-08-01T00:33:22;21.80;99.90
18624;DHT22;9441;51.420;7.036;2022-08-01T00:34:24;21.90;99.90
18624;DHT22;9441;51.420;7.036;2022-08-01T00:35:25;21.90;99.90
18624;DHT22;9441;51.420;7.036;2022-08-01T00:36:27;21.90;99.90
18624;DHT22;9441;51.420;7.036;2022-08-01T00:37:28;21.90;99.90
18624;DHT22;9441;51.420;7.036;2022-08-01T00:38:30;21.90;99.90
18624;DHT22;9441;51.420;7.036;2022-08-01T00:39:31;21.90;99.90
18624;DHT22;9441;51.420;7.036;2022-08-01T00:40:34;21.80;99.90
18624;DHT22;9441;51.420;7.036;2022-08-01T00:41:35;21.80;99.90
18624;DHT22;9441;51.420;7.036;2022-08-01T00:42:37;21.90;99.90
18624;DHT22;9441;51.420;7.036;2022-08-01T00:43:39;21.90;99.90
18624;DHT22;9441;51.420;7.036;2022-08-01T00:44:41;21.90;99.90
18624;DHT22;9441;51.420;7.036;2022-08-01T00:45:43;21.90;99.90
18624;DHT22;9441;51.420;7.036;2022-08-01T00:46:45;21.90;99.90
18624;DHT22;9441;51.420;7.036;2022-08-01T00:47:46;21.80;99.90
18624;DHT22;9441;51.420;7.036;2022-08-01T00:48:48;21.90;99.90
18624;DHT22;9441;51.420;7.036;2022-08-01T00:49:49;21.90;99.90
18624;DHT22;9441;51.420;7.036;2022-08-01T00:50:52;21.90;99.90
18624;DHT22;9441;51.420;7.036;2022-08-01T00:51:53;21.90;99.90
18624;DHT22;9441;51.420;7.036;2022-08-01T00:52:55;21.90;99.90
18624;DHT22;9441;51.420;7.036;2022-08-01T00:53:58;21.90;99.90
18624;DHT22;9441;51.420;7.036;2022-08-01T00:55:01;21.90;99.90
18624;DHT22;9441;51.420;7.036;2022-08-01T00:56:02;21.90;99.90
18624;DHT22;9441;51.420;7.036;2022-08-01T00:57:05;21.90;99.90
18624;DHT22;9441;51.420;7.036;2022-08-01T00:58:06;22.00;99.90
18624;DHT22;9441;51.420;7.036;2022-08-01T00:59:08;21.90;99.90
18624;DHT22;9441;51.420;7.036;2022-08-01T01:00:11;21.90;99.90
18624;DHT22;9441;51.420;7.036;2022-08-01T01:01:14;21.90;99.90
18624;DHT22;9441;51.420;7.036;2022-08-01T01:02:16;21.90;99.90
18624;DHT22;9441;51.420;7.036;2022-08-01T01:03:18;21.90;99.90
18624;DHT22;9441;51.420;7.036;2022-08-01T01:04:20;21.90;99.90
18624;DHT22;9441;51.420;7.036;2022-08-01T01:05:21;21.90;99.90
18624;DHT22;9441;51.420;7.036;2022-08-01T01:06:31;21.90;99.90
18624;DHT22;9441;51.420;7.036;2022-08-01T01:07:40;21.90;99.90
18624;DHT22;9441;51.420;7.036;2022-08-01T01:08:52;21.90;99.90
18624;DHT22;9441;51.420;7.036;2022-08-01T01:10:00;21.90;99.90
18624;DHT22;9441;51.420;7.036;2022-08-01T01:11:06;21.80;99.90
18624;DHT22;9441;51.420;7.036;2022-08-01T01:12:15;21.90;99.90
18624;DHT22;9441;51.420;7.036;2022-08-01T01:13:23;21.80;99.90
18624;DHT22;9441;51.420;7.036;2022-08-01T01:14:30;21.90;99.90
18624;DHT22;9441;51.420;7.036;2022-08-01T01:15:39;21.90;99.90
18624;DHT22;9441;51.420;7.036;2022-08-01T01:16:44;21.90;99.90
18624;DHT22;9441;51.420;7.036;2022-08-01T01:17:50;21.90;99.90
18624;DHT22;9441;51.420;7.036;2022-08-01T01:18:55;21.80;99.90
18624;DHT22;9441;51.420;7.036;2022-08-01T01:19:58;21.90;99.90
18624;DHT22;9441;51.420;7.036;2022-08-01T01:21:05;21.90;99.90
18624;DHT22;9441;51.420;7.036;2022-08-01T01:22:22;21.90;99.90
18624;DHT22;9441;51.420;7.036;2022-08-01T01:23:40;21.90;99.90
18624;DHT22;9441;51.420;7.036;2022-08-01T01:24:54;21.90;99.90
18624;DHT22;9441;51.420;7.036;2022-08-01T01:26:17;21.90;99.90
18624;DHT22;9441;51.420;7.036;2022-08-01T01:27:28;21.80;99.90
18624;DHT22;9441;51.420;7.036;2022-08-01T01:28:40;21.80;
18624;DHT22;9441;51.420;7.036;2022-08-01T01:29:51;21.80;99.90
18624;DHT22;9441;51.420;7.036;2022-08-01T01:30:55;21.80;99.90
18624;DHT22;9441;51.420;7.036;2022-08-01T01:32:02;21.80;99.90
18624;DHT22;9441;51.420;7.036;2022-08-01T01:33:06;21.80;99.90
18624;DHT22;9441;51.420;7.036;2022-08-01T01:34:13;21.80;99.90
18624;DHT22;9441;51.420;7.036;2022-08-01T01:35:17;21.80;99.90
18624;DHT22;9441;51.420;7.036;2022-08-01T01:36:22;21.80;99.90
18624;DHT22;9441;51.420;7.036;2022-08-01T01:37:26;21.80;99.90
18624;DHT22;9441;51.420;7.036;2022-08-01T01:38:33;21.80;99.90
18624;DHT22;9441;51.420;7.036;2022-08-01T01:39:35;21.80;99.90
18624;DHT22;9441;51.420;7.036;2022-08-01T01:40:39;21.80;99.90
18624;DHT22;9441;51.420;7.036;2022-08-01T01:41:42;21.80;99.90
18624;DHT22;9441;51.420;7.036;2022-08-01T01:42:46;21.80;99.90
18624;DHT22;9441;51.420;7.036;2022-08-01T01:43:48;21.80;99.90
18624;DHT22;9441;51.420;7.036;2022-08-01T01:44:53;21.90;99.90
18624;DHT22;9441;51.420;7.036;2022-08-01T01:45:56;21.90;99.90
18624;DHT22;9441;51.420;7.036;2022-08-01T01:46:59;21.80;99.90
18624;DHT22;9441;51.420;7.036;2022-08-01T01:48:01;21.80;99.90
18624;DHT22;9441;51.420;7.036;2022-08-01T01:49:05;21.70;99.90
18624;DHT22;9441;51.420;7.036;2022-08-01T01:50:11;21.80;99.90
18624;DHT22;9441;51.420;7.036;2022-08-01T01:51:15;21.80;99.90
18624;DHT22;9441;51.420;7.036;2022-08-01T01:52:17;21.80;99.90
18624;DHT22;9441;51.420;7.036;2022-08-01T01:53:21;21.80;99.90
18624;DHT22;9441;51.420;7.036;2022-08-01T01:54:24;21.90;99.90
18624;DHT22;9441;51.420;7.036;2022-08-01T01:55:28;21.90;99.90
18624;DHT22;9441;51.420;7.036;2022-08-01T01:56:30;21.80;99.90
18624;DHT22;9441;51.420;7.036;2022-08-01T01:57:36;21.80;99.90
18624;DHT22;9441;51.420;7.036;2022-08-01T01:58:39;21.80;99.90
18624;DHT22;9441;51.420;7.036;2022-08-01T01:59:41;21.80;99.90
18624;DHT22;9441;51.420;7.036;2022-08-01T02:00:46;21.90;99.90
18624;DHT22;9441;51.420;7.036;2022-08-01T02:01:50;21.90;99.90
18624;DHT22;9441;51.420;7.036;2022-08-01T02:02:52;21.90;99.90
18624;DHT22;9441;51.420;7.036;2022-08-01T02:03:56;21.90;99.90
18624;DHT22;9441;51.420;7.036;2022-08-01T02:04:58;21.80;99.90
18624;DHT22;9441;51.420;7.036;2022-08-01T02:06:01;21.90;99.90
18624;DHT22;9441;51.420;7.036;2022-08-01T02:07:03;21.80;99.90
18624;DHT22;9441;51.420;7.036;2022-08-01T02:08:06;21.80;99.90
18624;DHT22;9441;51.420;7.036;2022-08-01T02:09:08;21.80;99.90
18624;DHT22;9441;51.420;7.036;2022-08-01T02:10:12;21.80;99.90
18624;DHT22;9441;51.420;7.036;2022-08-01T02:11:13;21.80;99.90
18624;DHT22;9441;51.420;7.036;2022-08-01T02:12:22;21.90;99.90
18624;DHT22;9441;51.420;7.036;2022-08-01T02:13:25;21.80;99.90
18624;DHT22;9441;51.420;7.036;2022-08-01T02:14:28;21.80;99.90
18624;DHT22;9441;51.420;7.036;2022-08-01T02:15:32;21.80;99.90
18624;DHT22;9441;51.420;7.036;2022-08-01T02:16:39;21.90;99.90
18624;DHT22;9441;51.420;7.036;2022-08-01T02:17:44;21.90;99.90
18624;DHT22;9441;51.420;7.036;2022-08-01T02:18:46;21.90;99.90
18624;DHT22;9441;51.420;7.036;2022-08-01T02:19:48;21.80;99.90
18624;DHT22;9441;51.420;7.036;2022-08-01T02:20:52;21.80;99.90
18624;DHT22;9441;51.420;7.036;2022-08-01T02:21:57;21.80;99.90
18624;DHT22;9441;51.420;7.036;2022-08-01T02:23:03;21.80;99.90
18624;DHT22;9441;51.420;7.036;2022-08-01T02:24:12;21.80;99.90
18624;DHT22;9441;51.420;7.036;2022-08-01T02:25:20;21.90;99.90
18624;DHT22;9441;51.420;7.036;2022-08-01T02:26:27;21.80;99.90
18624;DHT22;9441;51.420;7.036;2022-08-01T02:27:34;21.80;99.90
18624;DHT22;9441;51.420;7.036;2022-08-01T02:28:40;21.90;99.90
18624;DHT22;9441;51.420;7.036;2022-08-01T02:29:44;21.90;99.90
18624;DHT22;9441;51.420;7.036;2022-08-01T02:30:48;21.80;99.90
18624;DHT22;9441;51.420;7.036;2022-08-01T02:31:54;21.80;99.90
18624;DHT22;9441;51.420;7.036;2022-08-01T02:32:59;21.70;99.90
18624;DHT22;9441;51.420;7.036;2022-08-01T02:34:05;21.80;99.90
18624;DHT22;9441;51.420;7.036;2022-08-01T02:35:13;21.70;99.90
18624;DHT22;9441;51.420;7.036;2022-08-01T02:36:14;21.80;99.90
18624;DHT22;9441;51.420;7.036;2022-08-01T02:37:18;21.80;99.90
18624;DHT22;9441;51.420;7.036;2022-08-01T02:38:23;21.80;99.90
18624;DHT22;9441;51.420;7.036;2022-08-01T02:39:26;21.80;99.90
18624;DHT22;9441;51.420;7.036;2022-08-01T02:40:32;21.70;99.90
18624;DHT22;9441;51.420;7.036;2022-08-01T02:41:36;21.70;99.90
18624;DHT22;9441;51.420;7.036;2022-08-01T02:42:42;21.70;99.90
18624;DHT22;9441;51.420;7.036;2022-08-01T02:43:47;21.80;99.90
18624;DHT22;9441;51.420;7.036;2022-08-01T02:44:51;21.80;99.90
18624;DHT22;9441;51.420;7.036;2022-08-01T02:45:57;21.70;99.90
18624;DHT22;9441;51.420;7.036;2022-08-01T02:47:03;21.70;99.90
18624;DHT22;9441;51.420;7.036;2022-08-01T02:48:09;21.80;99.90
18624;DHT22;9441;51.420;7.036;2022-08-01T02:49:12;21.80;99.90
18624;DHT22;9441;51.420;7.036;2022-08-01T02:50:15;21.80;99.90
18624;DHT22;9441;51.420;7.036;2022-08-01T02:51:19;21.80;99.90
18624;DHT22;9441;51.420;7.036;2022-08-01T02:52:24;21.80;99.90
18624;DHT22;9441;51.420;7.036;2022-08-01T02:53:31;21.80;99.90
18624;DHT22;9441;51.420;7.036;2022-08-01T02:54:34;21.80;99.90
18624;DHT22;9441;51.420;7.036;2022-08-01T02:55:38;21.80;99.90
18624;DHT22;9441;51.420;7.036;2022-08-01T02:56:40;21.80;99.90
18624;DHT22;9441;51.420;7.036;2022-08-01T02:57:44;21.80;99.90
18624;DHT22;9441;51.420;7.036;2022-08-01T02:58:47;21.80;99.90
18624;DHT22;9441;51.420;7.036;2022-08-01T02:59:52;21.80;99.90
18624;DHT22;9441;51.420;7.036;2022-08-01T03:00:55;21.80;99.90
18624;DHT22;9441;51.420;7.036;2022-08-01T03:02:01;21.80;99.90
18624;DHT22;9441;51.420;7.036;2022-08-01T03:03:05;21.80;99.90
18624;DHT22;9441;51.420;7.036;2022-08-01T03:04:09;21.80;99.90
18624;DHT22;9441;51.420;7.036;2022-08-01T03:05:12;21.80;99.90
18624;DHT22;9441;51.420;7.036;2022-08-01T03:06:15;21.80;99.90
18624;DHT22;9441;51.420;7.036;2022-08-01T03:07:18;21.80;99.90
18624;DHT22;9441;51.420;7.036;2022-08-01T03:08:22;21.90;99.90
18624;DHT22;9441;51.420;7.036;2022-08-01T03:09:27;21.90;99.90
18624;DHT22;9441;51.420;7.036;2022-08-01T03:10:31;21.80;99.90
18624;DHT22;9441;51.420;7.036;2022-08-01T03:11:34;21.80;99.90
18624;DHT22;9441;51.420;7.036;2022-08-01T03:12:40;21.90;99.90
18624;DHT22;9441;51.420;7.036;2022-08-01T03:13:44;21.90;99.90
18624;DHT22;9441;51.420;7.036;2022-08-01T03:14:49;21.90;99.90
18624;DHT22;9441;51.420;7.036;2022-08-01T03:15:54;21.90;99.90
18624;DHT22;9441;51.420;7.036;2022-08-01T03:16:57;21.90;99.90
18624;DHT22;9441;51.420;7.036;2022-08-01T03:18:03;21.90;99.90
18624;DHT22;9441;51.420;7.036;2022-08-01T03:19:07;21.90;99.90
18624;DHT22;9441;51.420;7.036;2022-08-01T03:20:11;21.90;99.90
18624;DHT22;9441;51.420;7.036;2022-08-01T03:21:13;21.90;99.90
18624;DHT22;9441;51.420;7.036;2022-08-01T03:22:16;21.90;99.90
18624;DHT22;9441;51.420;7.036;2022-08-01T03:23:19;21.90;99.90
18624;DHT22;9441;51.420;7.036;2022-08-01T03:24:23;21.90;99.90
18624;DHT22;9441;51.420;7.036;2022-08-01T03:25:26;21.90;99.90
18624;DHT22;9441;51.420;7.036;2022-08-01T03:26:31;21.90;99.90
18624;DHT22;9441;51.420;7.036;2022-08-01T03:27:36;21.90;99.90
18624;DHT22;9441;51.420;7.036;2022-08-01T03:28:39;21.90;99.90
18624;DHT22;9441;51.420;7.036;2022-08-01T03:29:43;21.90;99.90
18624;DHT22;9441;51.420;7.036;2022-08-01T03:30:47;21.90;99.90
18624;DHT22;9441;51.420;7.036;2022-08-01T03:31:50;21.90;99.90
18624;DHT22;9441;51.420;7.036;2022-08-01T03:32:53;21.90;99.90
18624;DHT22;9441;51.420;7.036;2022-08-01T03:33:56;21.90;99.90
18624;DHT22;9441;51.420;7.036;2022-08-01T03:34:58;22.00;99.90
18624;DHT22;9441;51.420;7.036;2022-08-01T03:36:00;21.90;99.90
18624;DHT22;9441;51.420;7.036;2022-08-01T03:37:07;21.90;99.90
18624;DHT22;9441;51.420;7.036;2022-08-01T03:38:13;21.90;99.90
18624;DHT22;9441;51.420;7.036;2022-08-01T03:39:17;21.90;99.90
18624;DHT22;9441;51.420;7.036;2022-08-01T03:40:24;21.90;99.90
18624;DHT22;9441;51.420;7.036;2022-08-01T03:41:28;22.00;99.90
18624;DHT22;9441;51.420;7.036;2022-08-01T03:42:37;22.00;99.90
18624;DHT22;9441;51.420;7.036;2022-08-01T03:43:45;22.00;99.90
18624;DHT22;9441;51.420;7.036;2022-08-01T03:44:53;22.10;99.90
18624;DHT22;9441;51.420;7.036;2022-08-01T03:45:59;22.00;99.90
18624;DHT22;9441;51.420;7.036;2022-08-01T03:47:06;22.00;99.90
18624;DHT22;9441;51.420;7.036;2022-08-01T03:48:17;22.10;99.90
18624;DHT22;9441;51.420;7.036;2022-08-01T03:49:23;22.10;99.90
18624;DHT22;9441;51.420;7.036;2022-08-01T03:50:27;22.10;99.90
18624;DHT22;9441;51.420;7.036;2022-08-01T03:51:31;22.10;99.90
18624;DHT22;9441;51.420;7.036;2022-08-01T03:52:34;22.10;99.90
18624;DHT22;9441;51.420;7.036;2022-08-01T03:53:38;22.10;99.90
18624;DHT22;9441;51.420;7.036;2022-08-01T03:54:46;22.10;99.90
18624;DHT22;9441;51.420;7.036;2022-08-01T03:55:49;22.10;99.90
18624;DHT22;9441;51.420;7.036;2022-08-01T03:56:51;22.00;99.90
18624;DHT22;9441;51.420;7.036;2022-08-01T03:57:53;21.90;99.90
18624;DHT22;9441;51.420;7.036;2022-08-01T03:58:55;22.00;99.90
18624;DHT22;9441;51.420;7.036;2022-08-01T03:59:58;22.00;99.90
18624;DHT22;9441;51.420;7.036;2022-08-01T04:01:00;22.00;99.90
18624;DHT22;9441;51.420;7.036;2022-08-01T04:02:03;22.00;99.90
18624;DHT22;9441;51.420;7.036;2022-08-01T04:03:06;21.90;99.90
18624;DHT22;9441;51.420;7.036;2022-08-01T04:04:09;22.10;99.90
18624;DHT22;9441;51.420;7.036;2022-08-01T04:05:11;22.10;99.90
18624;DHT22;9441;51.420;7.036;2022-08-01T04:06:14;22.10;99.90
18624;DHT22;9441;51.420;7.036;2022-08-01T04:07:22;22.10;99.90
18624;DHT22;9441;51.420;7.036;2022-08-01T04:08:34;22.00;99.90
18624;DHT22;9441;51.420;7.036;2022-08-01T04:09:35;22.00;99.90
18624;DHT22;9441;51.420;7.036;2022-08-01T04:10:37;22.00;99.90
18624;DHT22;9441;51.420;7.036;2022-08-01T04:11:39;22.00;99.90
18624;DHT22;9441;51.420;7.036;2022-08-01T04:12:41;21.90;99.90
18624;DHT22;9441;51.420;7.036;2022-08-01T04:13:43;22.00;99.90
18624;DHT22;9441;51.420;7.036;2022-08-01T04:14:45;22.00;99.90
18624;DHT22;9441;51.420;7.036;2022-08-01T04:15:47;21.90;99.90
18624;DHT22;9441;51.420;7.036;2022-08-01T04:16:49;22.00;99.90
18624;DHT22;9441;51.420;7.036;2022-08-01T04:17:50;21.90;99.90
18624;DHT22;9441;51.420;7.036;2022-08-01T04:18:52;21.90;99.90
18624;DHT22;9441;51.420;7.036;2022-08-01T04:19:53;22.00;99.90
18624;DHT22;9441;51.420;7.036;2022-08-01T04:20:56;22.00;99.90
18624;DHT22;9441;51.420;7.036;2022-08-01T04:21:57;22.10;99.90
18624;DHT22;9441;51.420;7.036;2022-08-01T04:22:59;22.10;99.90
18624;DHT22;9441;51.420;7.036;2022-08-01T04:24:05;22.00;99.90
18624;DHT22;9441;51.420;7.036;2022-08-01T04:25:12;22.00;99.90
18624;DHT22;9441;51.420;7.036;2022-08-01T04:26:16;22.10;99.90
18624;DHT22;9441;51.420;7.036;2022-08-01T04:27:21;22.10;99.90
18624;DHT22;9441;51.420;7.036;2022-08-01T04:28:25;22.10;99.90
18624;DHT22;9441;51.420;7.036;2022-08-01T04:29:27;22.00;99.90
18624;DHT22;9441;51.420;7.036;2022-08-01T04:30:33;22.00;99.90
18624;DHT22;9441;51.420;7.036;2022-08-01T04:31:35;22.00;99.90
18624;DHT22;9441;51.420;7.036;2022-08-01T04:32:40;22.00;99.90
18624;DHT22;9441;51.420;7.036;2022-08-01T04:33:47;22.00;99.90
18624;DHT22;9441;51.420;7.036;2022-08-01T04:34:50;22.00;99.90
18624;DHT22;9441;51.420;7.036;2022-08-01T04:35:52;22.10;99.90
18624;DHT22;9441;51.420;7.036;2022-08-01T04:36:57;22.00;99.90
18624;DHT22;9441;51.420;7.036;2022-08-01T04:37:59;22.00;99.90
18624;DHT22;9441;51.420;7.036;2022-08-01T04:39:04;22.00;99.90
18624;DHT22;9441;51.420;7.036;2022-08-01T04:40:07;22.00;99.90
18624;DHT22;9441;51.420;7.036;2022-08-01T04:41:12;22.10;99.90
18624;DHT22;9441;51.420;7.036;2022-08-01T04:42:14;22.10;99.90
18624;DHT22;9441;51.420;7.036;2022-08-01T04:43:17;22.00;99.90
18624;DHT22;9441;51.420;7.036;2022-08-01T04:44:19;22.10;99.90
18624;DHT22;9441;51.420;7.036;2022-08-01T04:45:23;22.00;99.90
18624;DHT22;9441;51.420;7.036;2022-08-01T04:46:24;22.00;99.90
18624;DHT22;9441;51.420;7.036;2022-08-01T04:47:27;22.10;99.90
18624;DHT22;9441;51.420;7.036;2022-08-01T04:48:28;22.00;99.90
18624;DHT22;9441;51.420;7.036;2022-08-01T04:49:31;22.10;99.90
18624;DHT22;9441;51.420;7.036;2022-08-01T04:50:35;22.10;99.90
18624;DHT22;9441;51.420;7.036;2022-08-01T04:51:49;22.20;99.90
18624;DHT22;9441;51.420;7.036;2022-08-01T04:52:53;22.20;99.90
18624;DHT22;9441;51.420;7.036;2022-08-01T04:53:54;22.30;99.90
18624;DHT22;9441;51.420;7.036;2022-08-01T04:54:58;22.30;99.90
18624;DHT22;9441;51.420;7.036;2022-08-01T04:55:59;22.20;99.90
18624;DHT22;9441;51.420;7.036;2022-08-01T04:57:01;22.20;99.90
18624;DHT22;9441;51.420;7.036;2022-08-01T04:58:02;22.30;99.90
18624;DHT22;9441;51.420;7.036;2022-08-01T04:59:04;22.20;99.90
18624;DHT22;9441;51.420;7.036;2022-08-01T05:00:24;22.20;99.90
18624;DHT22;9441;51.420;7.036;2022-08-01T05:01:26;22.20;99.90
18624;DHT22;9441;51.420;7.036;2022-08-01T05:02:28;22.10;99.90
18624;DHT22;9441;51.420;7.036;2022-08-01T05:03:29;22.10;99.90
18624;DHT22;9441;51.420;7.036;2022-08-01T05:04:32;22.10;99.90
18624;DHT22;9441;51.420;7.036;2022-08-01T05:05:33;22.20;99.90
18624;DHT22;9441;51.420;7.036;2022-08-01T05:06:35;22.20;99.90
18624;DHT22;9441;51.420;7.036;2022-08-01T05:07:36;22.20;99.90
18624;DHT22;9441;51.420;7.036;2022-08-01T05:08:39;22.10;99.90
18624;DHT22;9441;51.420;7.036;2022-08-01T05:09:42;22.10;99.90
18624;DHT22;9441;51.420;7.036;2022-08-01T05:10:46;22.10;99.90
18624;DHT22;9441;51.420;7.036;2022-08-01T05:11:47;22.10;99.90
18624;DHT22;9441;51.420;7.036;2022-08-01T05:12:49;22.10;99.90
18624;DHT22;9441;51.420;7.036;2022-08-01T05:13:51;22.00;99.90
18624;DHT22;9441;51.420;7.036;2022-08-01T05:14:53;21.90;99.90
18624;DHT22;9441;51.420;7.036;2022-08-01T05:15:54;21.90;99.90
18624;DHT22;9441;51.420;7.036;2022-08-01T05:16:56;21.90;99.90
18624;DHT22;9441;51.420;7.036;2022-08-01T05:17:57;21.90;99.90
18624;DHT22;9441;51.420;7.036;2022-08-01T05:18:59;21.90;99.90
18624;DHT22;9441;51.420;7.036;2022-08-01T05:20:00;22.00;99.90
18624;DHT22;9441;51.420;7.036;2022-08-01T05:21:03;21.90;99.90
18624;DHT22;9441;51.420;7.036;2022-08-01T05:22:05;21.90;99.90
18624;DHT22;9441;51.420;7.036;2022-08-01T05:23:07;22.00;99.90
18624;DHT22;9441;51.420;7.036;2022-08-01T05:24:10;22.00;99.90
18624;DHT22;9441;51.420;7.036;2022-08-01T05:25:13;21.90;99.90
18624;DHT22;9441;51.420;7.036;2022-08-01T05:26:14;22.00;99.90
18624;DHT22;9441;51.420;7.036;2022-08-01T05:27:16;22.00;99.90
18624;DHT22;9441;51.420;7.036;2022-08-01T05:28:17;22.00;99.90
18624;DHT22;9441;51.420;7.036;2022-08-01T05:29:19;22.00;99.90
18624;DHT22;9441;51.420;7.036;2022-08-01T05:30:20;21.90;99.90
18624;DHT22;9441;51.420;7.036;2022-08-01T05:31:23;22.00;99.90
18624;DHT22;9441;51.420;7.036;2022-08-01T05:32:24;22.00;99.90
18624;DHT22;9441;51.420;7.036;2022-08-01T05:33:26;22.10;99.90
18624;DHT22;9441;51.420;7.036;2022-08-01T05:34:27;22.10;99.90
18624;DHT22;9441;51.420;7.036;2022-08-01T05:35:29;22.10;99.90
18624;DHT22;9441;51.420;7.036;2022-08-01T05:36:31;22.10;99.90
18624;DHT22;9441;51.420;7.036;2022-08-01T05:37:33;22.10;99.90
18624;DHT22;9441;51.420;7.036;2022-08-01T05:38:34;21.90;99.90
18624;DHT22;9441;51.420;7.036;2022-08-01T05:39:37;21.90;99.90
18624;DHT22;9441;51.420;7.036;2022-08-01T05:40:38;21.80;99.90
18624;DHT22;9441;51.420;7.036;2022-08-01T05:41:41;21.70;99.90
18624;DHT22;9441;51.420;7.036;2022-08-01T05:42:42;21.80;99.90
18624;DHT22;9441;51.420;7.036;2022-08-01T05:43:44;21.90;99.90
18624;DHT22;9441;51.420;7.036;2022-08-01T05:44:45;21.80;99.90
18624;DHT22;9441;51.420;7.036;2022-08-01T05:45:48;21.90;99.90
18624;DHT22;9441;51.420;7.036;2022-08-01T05:46:49;22.00;99.90
18624;DHT22;9441;51.420;7.036;2022-08-01T05:47:51;22.00;99.90
18624;DHT22;9441;51.420;7.036;2022-08-01T05:48:52;21.80;99.90
18624;DHT22;9441;51.420;7.036;2022-08-01T05:49:54;21.70;99.90
18624;DHT22;9441;51.420;7.036;2022-08-01T05:50:55;21.60;99.90
18624;DHT22;9441;51.420;7.036;2022-08-01T05:51:57;21.60;99.90
18624;DHT22;9441;51.420;7.036;2022-08-01T05:53:02;21.60;99.90
18624;DHT22;9441;51.420;7.036;2022-08-01T05:54:03;21.70;99.90
18624;DHT22;9441;51.420;7.036;2022-08-01T05:55:08;21.70;99.90
18624;DHT22;9441;51.420;7.036;2022-08-01T05:56:09;21.80;99.90
18624;DHT22;9441;51.420;7.036;2022-08-01T05:57:11;21.80;99.90
18624;DHT22;9441;51.420;7.036;2022-08-01T05:58:13;21.70;99.90
18624;DHT22;9441;51.420;7.036;2022-08-01T05:59:15;21.70;99.90
18624;DHT22;9441;51.420;7.036;2022-08-01T06:00:16;21.70;99.90
18624;DHT22;9441;51.420;7.036;2022-08-01T06:01:19;21.80;99.90
18624;DHT22;9441;51.420;7.036;2022-08-01T06:02:20;21.80;99.90
18624;DHT22;9441;51.420;7.036;2022-08-01T06:03:22;21.90;99.90
18624;DHT22;9441;51.420;7.036;2022-08-01T06:04:23;22.00;99.90
18624;DHT22;9441;51.420;7.036;2022-08-01T06:05:25;22.10;99.90
18624;DHT22;9441;51.420;7.036;2022-08-01T06:06:26;22.10;99.90
18624;DHT22;9441;51.420;7.036;2022-08-01T06:07:28;22.10;99.90
18624;DHT22;9441;51.420;7.036;2022-08-01T06:08:30;22.10;99.90
18624;DHT22;9441;51.420;7.036;2022-08-01T06:09:32;21.70;99.90
18624;DHT22;9441;51.420;7.036;2022-08-01T06:10:35;21.50;99.90
18624;DHT22;9441;51.420;7.036;2022-08-01T06:11:37;21.70;99.90
18624;DHT22;9441;51.420;7.036;2022-08-01T06:12:39;21.50;99.90
18624;DHT22;9441;51.420;7.036;2022-08-01T06:13:40;21.50;99.90
18624;DHT22;9441;51.420;7.036;2022-08-01T06:14:42;21.40;99.90
18624;DHT22;9441;51.420;7.036;2022-08-01T06:15:43;21.40;99.90
18624;DHT22;9441;51.420;7.036;2022-08-01T06:16:45;21.40;99.90
18624;DHT22;9441;51.420;7.036;2022-08-01T06:17:46;21.40;99.90
18624;DHT22;9441;51.420;7.036;2022-08-01T06:18:48;21.20;99.90
18624;DHT22;9441;51.420;7.036;2022-08-01T06:19:50;21.10;99.90
18624;DHT22;9441;51.420;7.036;2022-08-01T06:20:52;21.20;99.90
18624;DHT22;9441;51.420;7.036;2022-08-01T06:21:54;21.20;99.90
18624;DHT22;9441;51.420;7.036;2022-08-01T06:22:55;21.30;99.90
18624;DHT22;9441;51.420;7.036;2022-08-01T06:23:57;21.30;99.90
18624;DHT22;9441;51.420;7.036;2022-08-01T06:24:59;21.20;99.90
18624;DHT22;9441;51.420;7.036;2022-08-01T06:26:01;21.30;99.90
18624;DHT22;9441;51.420;7.036;2022-08-01T06:27:03;21.40;99.90
18624;DHT22;9441;51.420;7.036;2022-08-01T06:28:05;21.30;99.90
18624;DHT22;9441;51.420;7.036;2022-08-01T06:29:07;21.30;99.90
18624;DHT22;9441;51.420;7.036;2022-08-01T06:30:08;21.40;99.90
18624;DHT22;9441;51.420;7.036;2022-08-01T06:31:10;21.60;99.90
18624;DHT22;9441;51.420;7.036;2022-08-01T06:32:14;21.60;99.90
18624;DHT22;9441;51.420;7.036;2022-08-01T06:33:15;21.30;99.90
18624;DHT22;9441;51.420;7.036;2022-08-01T06:34:17;21.20;99.90
18624;DHT22;9441;51.420;7.036;2022-08-01T06:35:18;21.30;99.90
18624;DHT22;9441;51.420;7.036;2022-08-01T06:36:20;21.30;99.90
18624;DHT22;9441;51.420;7.036;2022-08-01T06:37:22;21.30;99.90
18624;DHT22;9441;51.420;7.036;2022-08-01T06:38:24;21.20;99.90
18624;DHT22;9441;51.420;7.036;2022-08-01T06:39:25;21.10;99.90
18624;DHT22;9441;51.420;7.036;2022-08-01T06:40:27;21.20;99.90
18624;DHT22;9441;51.420;7.036;2022-08-01T06:41:29;21.20;99.90
18624;DHT22;9441;51.420;7.036;2022-08-01T06:42:32;21.30;99.90
18624;DHT22;9441;51.420;7.036;2022-08-01T06:43:36;21.20;99.90
18624;DHT22;9441;51.420;7.036;2022-08-01T06:44:38;21.10;99.90
18624;DHT22;9441;51.420;7.036;2022-08-01T06:45:39;21.10;99.90
18624;DHT22;9441;51.420;7.036;2022-08-01T06:46:41;21.20;99.90
18624;DHT22;9441;51.420;7.036;2022-08-01T06:47:44;21.00;99.90